Time;durP1;ratioP1;P1;durP2;ratioP2;P2;SDS_P1;SDS_P2;PMS_P1;PMS_P2;Temp;Humidity;BMP_temperature;BMP_pressure;BME280_temperature;BME280_humidity;BME280_pressure;Samples;Min_cycle;Max_cycle;Signal;HPM_P1;HPM_P2
2021/09/11 00:01:20;;;;;;;8.00;4.18;;;;;;;10.66;68.38;96718.03;5033016;28;20026;-57
2021/09/11 00:03:45;;;;;;;9.85;4.80;;;;;;;10.69;68.31;96716.16;5033024;28;20024;-59
2021/09/11 00:06:11;;;;;;;7.32;4.90;;;;;;;10.72;68.00;96712.59;5033071;28;20024;-59
2021/09/11 00:08:36;;;;;;;7.28;4.43;;;;;;;10.67;67.81;96709.28;5032988;28;20453;-58
2021/09/11 00:11:02;;;;;;;9.45;4.68;;;;;;;10.57;68.62;96714.00;5033096;28;20041;-54
2021/09/11 00:13:28;;;;;;;8.55;5.07;;;;;;;10.58;68.53;96707.84;5033086;28;20022;-56
2021/09/11 00:15:53;;;;;;;6.40;4.68;;;;;;;10.60;68.42;96716.50;5032911;28;20531;-56
2021/09/11 00:18:19;;;;;;;12.73;4.43;;;;;;;10.58;68.73;96718.31;5032939;28;20383;-57
2021/09/11 00:20:45;;;;;;;8.05;5.03;;;;;;;10.56;68.76;96715.75;5032806;28;20220;-58
2021/09/11 00:23:12;;;;;;;10.15;4.78;;;;;;;10.54;68.91;96714.09;5032867;28;20029;-57
2021/09/11 00:25:38;;;;;;;7.82;4.60;;;;;;;10.57;68.36;96709.59;5032882;28;20025;-56
2021/09/11 00:28:04;;;;;;;7.90;5.28;;;;;;;10.54;68.91;96712.31;5032994;28;20033;-58
2021/09/11 00:30:29;;;;;;;13.23;4.63;;;;;;;10.49;68.70;96717.75;5032820;28;20033;-58
2021/09/11 00:32:55;;;;;;;7.45;4.60;;;;;;;10.43;68.75;96714.44;5032784;28;20022;-56
2021/09/11 00:35:21;;;;;;;10.13;4.68;;;;;;;10.42;69.04;96713.56;5032608;28;20033;-58
2021/09/11 00:37:47;;;;;;;5.97;4.10;;;;;;;10.44;69.37;96722.22;5032780;28;20483;-55
2021/09/11 00:40:15;;;;;;;10.80;5.15;;;;;;;10.45;69.04;96712.63;5032748;28;20025;-57
2021/09/11 00:42:47;;;;;;;7.10;5.03;;;;;;;10.43;69.18;96715.28;5032623;28;20024;-56
2021/09/11 00:45:23;;;;;;;8.30;4.53;;;;;;;10.43;69.28;96717.03;5032676;28;20391;-59
2021/09/11 00:47:49;;;;;;;11.27;4.43;;;;;;;10.35;69.14;96712.94;5031399;28;20484;-55
2021/09/11 00:50:16;;;;;;;9.35;4.88;;;;;;;10.41;69.21;96713.66;5032652;28;20063;-59
2021/09/11 00:52:43;;;;;;;6.13;4.43;;;;;;;10.40;69.25;96712.78;5032626;28;20026;-55
2021/09/11 00:55:11;;;;;;;9.38;4.70;;;;;;;10.33;69.19;96716.53;5032467;28;20025;-57
2021/09/11 00:57:41;;;;;;;7.55;5.00;;;;;;;10.32;69.01;96713.03;5032536;28;20018;-57
2021/09/11 01:00:08;;;;;;;8.32;4.63;;;;;;;10.21;69.20;96716.00;5034534;28;20056;-57
2021/09/11 01:02:33;;;;;;;8.05;4.55;;;;;;;10.17;69.60;96713.59;5036133;28;20052;-57
2021/09/11 01:04:59;;;;;;;7.22;4.53;;;;;;;10.18;69.74;96718.72;5036177;28;20029;-58
2021/09/11 01:07:25;;;;;;;6.82;4.10;;;;;;;10.18;70.03;96717.91;5036120;28;20021;-57
2021/09/11 01:09:52;;;;;;;12.60;5.28;;;;;;;10.15;70.13;96726.69;5036030;28;20067;-56
2021/09/11 01:12:19;;;;;;;7.28;4.25;;;;;;;10.14;69.43;96711.91;5036135;28;20018;-57
2021/09/11 01:14:45;;;;;;;8.18;4.70;;;;;;;10.14;69.57;96721.53;5035916;28;20379;-57
2021/09/11 01:17:15;;;;;;;11.15;4.57;;;;;;;10.09;69.42;96724.28;5036021;28;20018;-58
2021/09/11 01:19:41;;;;;;;12.45;4.28;;;;;;;10.07;69.26;96721.72;5036008;28;20083;-57
2021/09/11 01:22:12;;;;;;;8.00;4.68;;;;;;;10.06;69.65;96722.59;5035833;28;20025;-55
2021/09/11 01:24:49;;;;;;;7.53;4.93;;;;;;;10.04;69.53;96719.19;5035814;28;20030;-56
2021/09/11 01:27:14;;;;;;;8.10;4.50;;;;;;;10.01;69.80;96718.44;5035825;28;20022;-58
2021/09/11 01:29:40;;;;;;;12.57;4.63;;;;;;;10.08;69.47;96722.56;5034613;28;20482;-55
2021/09/11 01:32:14;;;;;;;7.30;4.53;;;;;;;10.01;69.75;96716.69;5035827;28;20101;-55
2021/09/11 01:34:39;;;;;;;8.40;4.72;;;;;;;10.02;69.99;96721.00;5035568;28;20022;-59
2021/09/11 01:37:09;;;;;;;11.70;5.10;;;;;;;10.00;69.77;96715.00;5035561;28;20028;-58
2021/09/11 01:39:34;;;;;;;11.40;4.47;;;;;;;10.02;69.76;96717.56;5035502;28;20107;-57
2021/09/11 01:42:00;;;;;;;9.60;5.10;;;;;;;9.92;70.20;96714.38;5035589;28;20523;-56
2021/09/11 01:44:25;;;;;;;7.90;5.32;;;;;;;9.77;70.46;96711.34;5035392;28;20083;-56
2021/09/11 01:46:51;;;;;;;8.68;5.22;;;;;;;9.80;70.88;96713.88;5035297;28;20066;-56
2021/09/11 01:49:16;;;;;;;8.27;4.88;;;;;;;9.72;70.49;96706.28;5035509;28;20021;-57
2021/09/11 01:51:46;;;;;;;8.00;5.00;;;;;;;9.73;70.46;96707.13;5035374;28;20017;-54
2021/09/11 01:54:12;;;;;;;5.70;4.72;;;;;;;9.71;70.51;96708.94;5035353;28;20492;-57
2021/09/11 01:56:37;;;;;;;9.40;5.05;;;;;;;9.66;70.04;96708.25;5035214;28;20030;-58
2021/09/11 01:59:03;;;;;;;9.07;4.65;;;;;;;9.60;70.57;96709.25;5034990;28;20050;-55
2021/09/11 02:01:28;;;;;;;8.00;5.20;;;;;;;9.45;70.87;96697.56;5035116;28;20025;-54
2021/09/11 02:03:54;;;;;;;10.63;5.10;;;;;;;9.55;70.99;96712.03;5035113;28;20475;-58
2021/09/11 02:06:21;;;;;;;8.23;4.78;;;;;;;9.60;70.98;96707.53;5035101;28;20487;-56
2021/09/11 02:08:47;;;;;;;7.32;4.18;;;;;;;9.67;70.37;96709.94;5034987;28;20061;-56
2021/09/11 02:11:13;;;;;;;8.35;5.07;;;;;;;9.68;70.45;96701.19;5034639;28;20497;-57
2021/09/11 02:13:38;;;;;;;10.25;4.43;;;;;;;9.73;70.17;96710.59;5034894;28;20025;-57
2021/09/11 02:16:05;;;;;;;7.85;4.35;;;;;;;9.73;69.75;96702.75;5034824;28;20115;-58
2021/09/11 02:18:31;;;;;;;5.65;4.25;;;;;;;9.68;69.98;96701.19;5034823;28;20033;-59
2021/09/11 02:20:56;;;;;;;7.68;4.38;;;;;;;9.62;70.41;96702.25;5034752;28;20025;-59
2021/09/11 02:23:23;;;;;;;7.20;4.40;;;;;;;9.57;70.80;96691.09;5034688;28;20493;-57
2021/09/11 02:25:50;;;;;;;13.50;4.25;;;;;;;9.57;70.71;96697.16;5034582;28;20113;-55
2021/09/11 02:28:16;;;;;;;8.68;4.55;;;;;;;9.52;71.04;96693.88;5034623;28;20048;-55
2021/09/11 02:30:43;;;;;;;8.05;4.95;;;;;;;9.55;71.04;96693.78;5034602;28;20017;-55
2021/09/11 02:33:09;;;;;;;7.40;4.80;;;;;;;9.53;71.12;96697.31;5034514;28;20163;-53
2021/09/11 02:35:35;;;;;;;8.68;4.68;;;;;;;9.56;71.10;96698.06;5034514;28;20060;-56
2021/09/11 02:38:00;;;;;;;7.20;4.15;;;;;;;9.51;71.06;96699.97;5034393;28;20466;-56
2021/09/11 02:40:26;;;;;;;9.50;4.35;;;;;;;9.57;70.76;96699.78;5034384;28;20032;-56
2021/09/11 02:42:51;;;;;;;12.52;4.63;;;;;;;9.54;70.70;96707.72;5034321;28;20090;-58
2021/09/11 02:45:17;;;;;;;13.60;4.80;;;;;;;9.48;70.97;96710.50;5034292;28;20033;-53
2021/09/11 02:47:42;;;;;;;9.27;4.50;;;;;;;9.50;70.90;96708.72;5034215;28;20112;-56
2021/09/11 02:50:08;;;;;;;8.30;4.95;;;;;;;9.48;70.80;96713.13;5034155;28;20025;-58
2021/09/11 02:52:34;;;;;;;8.48;4.22;;;;;;;9.45;70.60;96716.69;5034103;28;20029;-59
2021/09/11 02:55:00;;;;;;;9.55;4.45;;;;;;;9.50;70.36;96711.31;5034010;28;20048;-58
2021/09/11 02:57:25;;;;;;;7.40;3.92;;;;;;;9.49;70.47;96717.47;5034047;28;20042;-57
2021/09/11 02:59:51;;;;;;;9.23;4.18;;;;;;;9.42;70.06;96714.16;5033922;28;20049;-57
2021/09/11 03:02:16;;;;;;;10.75;4.40;;;;;;;9.32;70.96;96715.34;5034045;28;20025;-58
2021/09/11 03:04:42;;;;;;;7.55;4.53;;;;;;;9.33;71.02;96717.91;5033965;28;20036;-55
2021/09/11 03:07:07;;;;;;;9.25;4.63;;;;;;;9.33;71.56;96711.84;5033934;28;20025;-58
2021/09/11 03:09:33;;;;;;;9.07;4.25;;;;;;;9.17;71.35;96727.09;5033867;28;20529;-59
2021/09/11 03:11:58;;;;;;;6.97;4.60;;;;;;;9.14;72.60;96724.56;5033799;28;20022;-56
2021/09/11 03:14:24;;;;;;;9.90;4.60;;;;;;;9.20;72.09;96722.66;5033644;28;20490;-56
2021/09/11 03:16:49;;;;;;;7.07;4.05;;;;;;;9.27;71.66;96727.69;5033755;28;20029;-56
2021/09/11 03:19:15;;;;;;;7.45;4.05;;;;;;;9.25;72.03;96727.75;5033647;28;20013;-58
2021/09/11 03:21:40;;;;;;;7.95;3.78;;;;;;;9.19;71.48;96718.34;5032936;28;20025;-56
2021/09/11 03:24:06;;;;;;;6.30;4.15;;;;;;;9.22;71.31;96720.00;5033590;28;20387;-55
2021/09/11 03:26:31;;;;;;;13.02;4.50;;;;;;;9.26;71.68;96718.13;5033551;28;20025;-57
2021/09/11 03:28:57;;;;;;;6.10;4.13;;;;;;;9.27;71.36;96712.88;5033443;28;20033;-57
2021/09/11 03:31:22;;;;;;;5.47;3.75;;;;;;;9.29;71.57;96711.09;5033518;28;20410;-57
2021/09/11 03:33:48;;;;;;;8.05;4.28;;;;;;;9.25;71.66;96709.47;5033444;28;20032;-58
2021/09/11 03:36:14;;;;;;;5.47;4.00;;;;;;;9.24;71.73;96715.56;5033317;28;20120;-58
2021/09/11 03:38:39;;;;;;;9.55;4.43;;;;;;;9.23;71.70;96711.25;5033392;28;20029;-57
2021/09/11 03:41:05;;;;;;;11.23;4.75;;;;;;;9.19;72.22;96707.03;5033357;28;20033;-56
2021/09/11 03:43:30;;;;;;;4.55;3.60;;;;;;;9.15;71.70;96703.66;5033376;28;20026;-57
2021/09/11 03:45:56;;;;;;;6.50;3.42;;;;;;;9.20;71.19;96708.75;5033276;28;20060;-58
2021/09/11 03:48:21;;;;;;;6.05;3.55;;;;;;;9.19;71.76;96712.25;5033288;28;20025;-58
2021/09/11 03:50:47;;;;;;;7.50;3.30;;;;;;;9.18;71.60;96705.34;5033197;28;20022;-57
2021/09/11 03:53:12;;;;;;;5.72;3.83;;;;;;;9.14;71.99;96712.38;5033222;28;20029;-55
2021/09/11 03:55:38;;;;;;;9.80;3.58;;;;;;;9.13;73.22;96702.00;5033096;28;20033;-57
2021/09/11 03:58:03;;;;;;;8.30;3.88;;;;;;;9.16;72.45;96704.50;5032847;28;20026;-57
2021/09/11 04:00:29;;;;;;;7.60;3.92;;;;;;;9.21;71.95;96713.91;5033273;28;20032;-58
2021/09/11 04:02:54;;;;;;;5.63;3.67;;;;;;;9.28;71.84;96719.81;5033150;28;20156;-57
2021/09/11 04:05:20;;;;;;;13.18;4.03;;;;;;;9.36;71.39;96719.56;5033087;28;20049;-55
2021/09/11 04:07:45;;;;;;;4.95;3.55;;;;;;;9.41;71.32;96720.28;5033044;28;20033;-59
2021/09/11 04:10:11;;;;;;;6.50;3.85;;;;;;;9.42;70.68;96726.38;5032990;28;20028;-58
2021/09/11 04:12:36;;;;;;;8.02;3.97;;;;;;;9.38;70.54;96717.78;5033119;28;20625;-57
2021/09/11 04:15:02;;;;;;;6.55;3.97;;;;;;;9.35;70.87;96728.31;5032840;28;20030;-57
2021/09/11 04:17:28;;;;;;;5.05;3.42;;;;;;;9.33;70.99;96724.91;5032997;28;20084;-57
2021/09/11 04:19:54;;;;;;;3.78;3.20;;;;;;;9.38;70.47;96730.84;5033037;28;20079;-57
2021/09/11 04:22:19;;;;;;;6.55;3.67;;;;;;;9.31;71.52;96724.94;5032813;28;20029;-57
2021/09/11 04:24:45;;;;;;;7.93;3.65;;;;;;;9.32;71.45;96729.25;5032908;28;20527;-59
2021/09/11 04:27:10;;;;;;;5.32;3.13;;;;;;;9.30;71.80;96736.28;5032888;28;20064;-58
2021/09/11 04:29:36;;;;;;;9.27;3.95;;;;;;;9.33;72.07;96733.56;5032832;28;20018;-58
2021/09/11 04:32:02;;;;;;;7.93;3.00;;;;;;;9.39;71.58;96734.31;5032737;28;20040;-57
2021/09/11 04:34:27;;;;;;;10.05;3.22;;;;;;;9.51;70.80;96725.25;5035530;28;20033;-56
2021/09/11 04:36:53;;;;;;;9.63;3.10;;;;;;;9.64;70.77;96728.31;5036879;28;20034;-56
2021/09/11 04:39:18;;;;;;;6.60;3.50;;;;;;;10.03;70.76;96722.72;5036673;28;20033;-58
2021/09/11 04:41:44;;;;;;;4.18;2.85;;;;;;;10.70;68.02;96723.13;5036648;28;20108;-59
2021/09/11 04:44:09;;;;;;;5.55;3.60;;;;;;;11.44;66.39;96723.88;5036689;28;20029;-58
2021/09/11 04:46:35;;;;;;;9.25;2.70;;;;;;;12.23;64.09;96729.56;5036452;28;20022;-57
2021/09/11 04:49:00;;;;;;;10.68;2.63;;;;;;;13.05;61.94;96719.06;5036616;28;20032;-59
2021/09/11 04:51:26;;;;;;;4.07;2.17;;;;;;;13.86;59.98;96721.50;5036407;28;20479;-58
2021/09/11 04:53:52;;;;;;;3.42;2.30;;;;;;;14.72;57.89;96725.13;5036478;28;20583;-57
2021/09/11 04:56:19;;;;;;;6.15;2.30;;;;;;;15.45;55.22;96717.84;5036248;28;20045;-58
2021/09/11 04:58:44;;;;;;;7.13;2.80;;;;;;;16.20;53.74;96720.78;5036024;28;20056;-59
2021/09/11 05:01:10;;;;;;;6.75;2.65;;;;;;;16.99;52.23;96718.75;5036262;28;20021;-59
2021/09/11 05:03:36;;;;;;;7.57;2.67;;;;;;;17.75;50.29;96720.28;5036224;28;20598;-59
2021/09/11 05:06:01;;;;;;;5.45;2.50;;;;;;;18.44;48.40;96716.72;5036276;28;20036;-59
2021/09/11 05:08:27;;;;;;;6.18;2.25;;;;;;;19.16;47.50;96718.06;5036104;28;20105;-57
2021/09/11 05:10:53;;;;;;;7.43;2.83;;;;;;;19.86;45.90;96722.03;5036001;28;20376;-59
2021/09/11 05:13:18;;;;;;;4.03;2.10;;;;;;;20.38;44.50;96721.78;5036038;28;20076;-59
2021/09/11 05:15:44;;;;;;;2.55;2.30;;;;;;;20.87;43.65;96721.66;5035887;28;20029;-58
2021/09/11 05:18:10;;;;;;;3.67;2.25;;;;;;;21.43;43.10;96720.03;5036012;28;20418;-59
2021/09/11 05:20:35;;;;;;;6.28;2.55;;;;;;;21.84;41.90;96720.34;5035854;28;20535;-59
2021/09/11 05:23:01;;;;;;;3.80;2.05;;;;;;;22.34;41.20;96725.13;5035902;28;20368;-59
2021/09/11 05:25:27;;;;;;;3.60;1.75;;;;;;;22.81;40.33;96723.09;5035736;28;20026;-58
2021/09/11 05:27:52;;;;;;;5.97;2.47;;;;;;;23.34;38.66;96727.47;5035694;28;20029;-59
2021/09/11 05:30:19;;;;;;;4.75;2.60;;;;;;;23.79;37.60;96725.38;5035748;28;20112;-59
2021/09/11 05:32:45;;;;;;;4.50;2.20;;;;;;;24.31;38.25;96724.31;5035678;28;20033;-59
2021/09/11 05:35:11;;;;;;;4.50;2.38;;;;;;;24.82;37.47;96726.81;5035476;28;20037;-58
2021/09/11 05:37:38;;;;;;;2.55;1.63;;;;;;;25.26;36.36;96730.81;5035562;28;20049;-58
2021/09/11 05:40:05;;;;;;;4.47;2.35;;;;;;;25.58;35.92;96723.31;5035659;28;20498;-59
2021/09/11 05:42:31;;;;;;;4.15;2.03;;;;;;;25.85;35.87;96721.66;5035438;28;20383;-57
2021/09/11 05:44:59;;;;;;;9.38;2.22;;;;;;;26.20;35.25;96720.00;5034644;28;20502;-58
2021/09/11 05:47:25;;;;;;;2.95;2.00;;;;;;;26.18;34.63;96713.94;5035366;28;20041;-59
2021/09/11 05:49:50;;;;;;;2.63;1.98;;;;;;;26.24;33.42;96713.34;5035357;28;20029;-58
2021/09/11 05:52:16;;;;;;;6.85;2.33;;;;;;;26.55;33.74;96716.66;5035356;28;20100;-58
2021/09/11 05:54:41;;;;;;;4.82;2.05;;;;;;;26.99;34.36;96713.13;5035155;28;20025;-58
2021/09/11 05:57:07;;;;;;;5.70;2.53;;;;;;;27.43;34.83;96712.19;5035277;28;20476;-59
2021/09/11 05:59:32;;;;;;;4.10;2.08;;;;;;;27.91;34.31;96713.53;5035017;28;20100;-58
2021/09/11 06:01:58;;;;;;;4.93;2.15;;;;;;;28.25;33.51;96709.91;5035093;28;20033;-59
2021/09/11 06:04:24;;;;;;;6.20;2.33;;;;;;;28.47;33.19;96723.75;5035103;28;20083;-58
2021/09/11 06:06:49;;;;;;;6.90;2.17;;;;;;;28.57;32.13;96719.03;5035053;28;20053;-59
2021/09/11 06:09:15;;;;;;;3.88;2.30;;;;;;;28.64;32.85;96727.28;5034980;28;20029;-60
2021/09/11 06:11:40;;;;;;;3.63;2.22;;;;;;;28.82;32.99;96724.41;5034859;28;20026;-59
2021/09/11 06:14:06;;;;;;;6.97;2.55;;;;;;;28.98;33.15;96722.72;5034918;28;20033;-59
2021/09/11 06:16:32;;;;;;;5.03;2.03;;;;;;;28.92;32.24;96713.44;5034766;28;20056;-58
2021/09/11 06:19:01;;;;;;;4.10;2.20;;;;;;;29.00;31.92;96720.69;5034926;28;20029;-59
2021/09/11 06:21:27;;;;;;;5.72;2.10;;;;;;;28.99;31.74;96706.38;5034777;28;20106;-59
2021/09/11 06:23:53;;;;;;;5.22;2.08;;;;;;;28.98;31.81;96715.50;5034728;28;20046;-58
2021/09/11 06:26:18;;;;;;;3.75;2.20;;;;;;;28.99;31.22;96706.38;5034626;28;20017;-59
2021/09/11 06:28:44;;;;;;;3.20;2.13;;;;;;;29.04;30.34;96710.44;5034566;28;20026;-59
2021/09/11 06:31:10;;;;;;;4.40;1.95;;;;;;;29.02;30.83;96707.91;5034727;28;20025;-58
2021/09/11 06:33:35;;;;;;;2.40;1.95;;;;;;;28.81;31.45;96717.34;5034696;28;20092;-58
2021/09/11 06:36:01;;;;;;;3.53;2.00;;;;;;;28.73;31.23;96711.97;5034392;28;20487;-57
2021/09/11 06:38:26;;;;;;;4.32;1.80;;;;;;;28.69;31.44;96707.94;5034512;28;20040;-58
2021/09/11 06:40:52;;;;;;;5.05;2.03;;;;;;;28.57;30.24;96704.75;5034306;28;20365;-59
2021/09/11 06:43:18;;;;;;;3.42;2.00;;;;;;;28.43;29.46;96707.09;5034426;28;20033;-58
2021/09/11 06:45:44;;;;;;;3.83;2.00;;;;;;;28.42;30.52;96709.97;5034316;28;20379;-59
2021/09/11 06:48:09;;;;;;;6.00;2.55;;;;;;;28.39;29.74;96711.13;5034394;28;20037;-59
2021/09/11 06:50:35;;;;;;;10.05;2.38;;;;;;;28.49;29.09;96702.91;5034256;28;20071;-58
2021/09/11 06:53:01;;;;;;;4.47;2.20;;;;;;;28.62;29.70;96703.22;5034204;28;20061;-58
2021/09/11 06:55:26;;;;;;;6.28;1.90;;;;;;;28.76;30.80;96708.94;5034026;28;20502;-59
2021/09/11 06:57:52;;;;;;;3.55;2.53;;;;;;;28.89;32.04;96695.78;5033885;28;20107;-58
2021/09/11 07:00:18;;;;;;;4.60;2.17;;;;;;;29.01;29.89;96708.91;5034026;28;20021;-58
2021/09/11 07:02:43;;;;;;;12.55;2.45;;;;;;;29.03;30.37;96700.66;5033952;28;20021;-59
2021/09/11 07:05:09;;;;;;;5.47;2.60;;;;;;;29.15;29.45;96702.00;5033884;28;20028;-59
2021/09/11 07:07:35;;;;;;;6.15;2.65;;;;;;;28.94;28.56;96692.63;5033893;28;20032;-59
2021/09/11 07:10:01;;;;;;;5.95;2.58;;;;;;;28.73;30.33;96701.19;5033923;28;20029;-59
2021/09/11 07:12:26;;;;;;;6.55;2.53;;;;;;;28.87;29.76;96707.75;5033848;28;20022;-58
2021/09/11 07:14:52;;;;;;;8.02;3.40;;;;;;;28.78;27.85;96714.16;5033639;28;20480;-58
2021/09/11 07:17:17;;;;;;;6.40;3.28;;;;;;;27.97;25.86;96715.59;5033668;28;20080;-58
2021/09/11 07:19:43;;;;;;;8.90;3.47;;;;;;;27.96;25.29;96709.34;5033699;28;20026;-59
2021/09/11 07:22:09;;;;;;;11.98;4.00;;;;;;;27.57;26.62;96701.84;5033681;28;20025;-59
2021/09/11 07:24:34;;;;;;;9.10;4.03;;;;;;;27.20;25.65;96701.16;5033654;28;20026;-59
2021/09/11 07:27:00;;;;;;;13.30;3.60;;;;;;;27.12;25.57;96702.81;5033502;28;20025;-58
2021/09/11 07:29:25;;;;;;;9.20;3.83;;;;;;;26.83;25.05;96700.41;5033733;28;20025;-59
2021/09/11 07:31:51;;;;;;;16.98;4.60;;;;;;;26.84;25.74;96705.63;5033474;28;20026;-59
2021/09/11 07:34:17;;;;;;;14.82;4.05;;;;;;;26.73;26.67;96714.78;5033511;28;20068;-58
2021/09/11 07:36:43;;;;;;;7.85;3.88;;;;;;;26.92;26.41;96704.84;5033472;28;20367;-58
2021/09/11 07:39:08;;;;;;;14.63;3.95;;;;;;;27.10;25.34;96709.34;5033432;28;20025;-60
2021/09/11 07:41:34;;;;;;;10.73;4.25;;;;;;;26.97;22.27;96709.75;5033355;28;20028;-59
2021/09/11 07:44:00;;;;;;;10.45;4.68;;;;;;;27.23;23.55;96706.22;5033418;28;20053;-58
2021/09/11 07:46:26;;;;;;;12.27;4.38;;;;;;;27.44;23.44;96704.97;5033204;28;20084;-59
2021/09/11 07:48:51;;;;;;;14.02;4.13;;;;;;;27.40;24.45;96706.28;5033239;28;20086;-58
2021/09/11 07:51:19;;;;;;;14.52;4.15;;;;;;;27.49;23.72;96702.66;5033286;28;20025;-58
2021/09/11 07:53:45;;;;;;;12.05;4.45;;;;;;;27.55;23.04;96710.06;5033309;28;20490;-58
2021/09/11 07:56:11;;;;;;;12.30;5.05;;;;;;;27.77;23.92;96696.19;5033123;28;20491;-58
2021/09/11 07:58:38;;;;;;;10.60;4.80;;;;;;;27.86;24.21;96696.06;5032958;28;20403;-59
2021/09/11 08:01:04;;;;;;;13.82;4.20;;;;;;;27.57;22.85;96689.22;5033183;28;20111;-58
2021/09/11 08:03:30;;;;;;;10.52;4.18;;;;;;;27.80;23.16;96695.88;5033018;28;20433;-58
2021/09/11 08:05:57;;;;;;;10.75;4.05;;;;;;;27.57;23.49;96696.47;5032984;28;20061;-59
2021/09/11 08:08:23;;;;;;;8.07;4.55;;;;;;;27.64;23.41;96689.44;5032673;28;20030;-59
2021/09/11 08:10:50;;;;;;;12.20;4.20;;;;;;;27.81;23.62;96689.53;5033313;28;20034;-58
2021/09/11 08:13:16;;;;;;;14.68;3.95;;;;;;;27.75;21.55;96686.47;5032982;28;20025;-58
2021/09/11 08:15:45;;;;;;;14.13;4.13;;;;;;;27.72;23.32;96688.66;5032935;28;20045;-58
2021/09/11 08:18:12;;;;;;;8.15;3.78;;;;;;;27.71;24.56;96692.34;5032972;28;20083;-59
2021/09/11 08:20:39;;;;;;;9.95;4.53;;;;;;;27.87;21.86;96687.00;5032990;28;20037;-59
2021/09/11 08:23:05;;;;;;;12.10;4.15;;;;;;;28.22;21.17;96677.97;5032914;28;20043;-59
2021/09/11 08:25:31;;;;;;;12.27;4.30;;;;;;;28.33;20.73;96682.22;5032908;28;20483;-59
2021/09/11 08:27:57;;;;;;;12.50;4.25;;;;;;;28.24;22.55;96675.97;5032768;28;20029;-60
2021/09/11 08:30:23;;;;;;;12.75;4.80;;;;;;;28.42;21.25;96681.22;5032740;28;20024;-59
2021/09/11 08:32:49;;;;;;;16.55;4.68;;;;;;;28.36;24.19;96674.66;5032898;28;20018;-58
2021/09/11 08:35:16;;;;;;;9.77;4.80;;;;;;;28.52;22.61;96672.97;5032782;28;20372;-58
2021/09/11 08:37:42;;;;;;;13.77;5.40;;;;;;;28.48;20.24;96669.75;5032892;28;20072;-59
2021/09/11 08:40:12;;;;;;;17.33;5.22;;;;;;;28.50;20.83;96667.75;5032668;28;20044;-59
2021/09/11 08:42:38;;;;;;;17.20;4.50;;;;;;;28.37;21.53;96662.91;5032803;28;20541;-59
2021/09/11 08:45:05;;;;;;;11.38;5.15;;;;;;;28.36;22.05;96665.75;5032649;28;20030;-59
2021/09/11 08:47:30;;;;;;;13.63;4.68;;;;;;;28.12;20.42;96659.34;5032688;28;20036;-59
2021/09/11 08:49:56;;;;;;;9.50;4.45;;;;;;;28.07;20.36;96659.84;5032632;28;20104;-59
2021/09/11 08:52:22;;;;;;;9.38;4.43;;;;;;;27.96;20.36;96639.47;5032690;28;20018;-60
2021/09/11 08:54:49;;;;;;;17.52;5.05;;;;;;;27.80;20.27;96648.38;5032501;28;20036;-59
2021/09/11 08:57:26;;;;;;;12.98;5.57;;;;;;;27.45;20.11;96648.41;5032568;28;20025;-58
2021/09/11 08:59:54;;;;;;;13.30;5.13;;;;;;;27.10;19.55;96634.19;5032539;28;20057;-58
2021/09/11 09:02:22;;;;;;;15.38;4.70;;;;;;;27.01;21.84;96641.38;5032621;28;20068;-60
2021/09/11 09:04:56;;;;;;;13.75;4.38;;;;;;;27.41;23.60;96635.47;5032533;28;20068;-59
2021/09/11 09:07:43;;;;;;;11.98;4.63;;;;;;;27.83;21.33;96634.59;5032633;28;20029;-59
2021/09/11 09:10:10;;;;;;;12.40;4.55;;;;;;;27.94;20.88;96638.84;5032503;28;20128;-59
2021/09/11 09:12:39;;;;;;;10.40;4.80;;;;;;;27.71;19.35;96630.53;5032595;28;20026;-60
2021/09/11 09:15:06;;;;;;;13.27;5.30;;;;;;;27.44;19.25;96627.09;5032363;28;20411;-59
2021/09/11 09:17:48;;;;;;;12.63;4.82;;;;;;;26.88;20.25;96625.69;5032342;28;20030;-58
2021/09/11 09:20:26;;;;;;;14.55;4.15;;;;;;;26.80;22.13;96625.63;5032993;28;20061;-59
2021/09/11 09:22:59;;;;;;;10.75;4.28;;;;;;;26.98;20.50;96623.75;5035907;28;20083;-59
2021/09/11 09:25:38;;;;;;;7.93;4.93;;;;;;;27.34;21.52;96621.88;5036272;28;20037;-59
2021/09/11 09:28:06;;;;;;;8.75;4.47;;;;;;;27.70;21.83;96612.75;5035887;28;20075;-58
2021/09/11 09:30:39;;;;;;;10.68;4.45;;;;;;;27.70;20.77;96620.81;5035745;28;20083;-59
2021/09/11 09:33:06;;;;;;;9.77;4.50;;;;;;;27.40;20.88;96613.16;5035699;28;20035;-59
2021/09/11 09:35:32;;;;;;;12.55;4.50;;;;;;;26.99;20.61;96624.56;5035603;28;20030;-59
2021/09/11 09:38:01;;;;;;;9.65;4.80;;;;;;;26.70;21.64;96610.47;5035796;28;20056;-58
2021/09/11 09:40:51;;;;;;;8.25;4.70;;;;;;;26.62;24.32;96608.59;5035604;28;20033;-59
2021/09/11 09:43:42;;;;;;;9.98;4.90;;;;;;;26.60;24.16;96613.28;5035623;28;20422;-59
2021/09/11 09:46:09;;;;;;;;;;;;;;;26.52;23.03;96607.88;5035932;28;20021;-59
2021/09/11 09:48:37;;;;;;;16.00;5.47;;;;;;;26.20;23.06;96614.63;5035521;28;20007;-58
2021/09/11 09:51:05;;;;;;;11.82;5.10;;;;;;;26.12;23.10;96602.88;5035350;28;20026;-59
2021/09/11 09:53:31;;;;;;;12.77;5.05;;;;;;;26.31;22.87;96597.50;5035396;28;20056;-59
2021/09/11 09:55:57;;;;;;;13.30;5.97;;;;;;;26.60;24.50;96607.06;5034071;28;20104;-60
2021/09/11 09:58:23;;;;;;;9.07;4.78;;;;;;;26.83;26.94;96599.31;5035006;28;20045;-59
2021/09/11 10:00:48;;;;;;;12.30;5.18;;;;;;;26.68;23.78;96609.81;5035304;28;20025;-59
2021/09/11 10:03:14;;;;;;;10.02;4.97;;;;;;;26.73;22.89;96602.13;5035188;28;20079;-59
2021/09/11 10:05:46;;;;;;;15.27;5.15;;;;;;;26.77;22.06;96599.97;5035133;28;20029;-59
2021/09/11 10:08:14;;;;;;;19.20;5.03;;;;;;;26.49;24.52;96603.66;5035036;28;20026;-59
2021/09/11 10:10:49;;;;;;;14.20;4.93;;;;;;;26.72;23.20;96602.28;5035092;28;20025;-59
2021/09/11 10:13:22;;;;;;;20.52;5.65;;;;;;;26.77;23.11;96602.66;5035156;28;20036;-59
2021/09/11 10:16:06;;;;;;;17.08;4.82;;;;;;;26.61;23.42;96604.22;5034809;28;20079;-59
2021/09/11 10:18:35;;;;;;;11.70;4.85;;;;;;;26.46;24.60;96608.50;5035024;28;20057;-60
2021/09/11 10:21:27;;;;;;;15.02;4.75;;;;;;;26.41;25.72;96597.41;5034849;28;20036;-59
2021/09/11 10:23:56;;;;;;;8.40;4.60;;;;;;;26.20;25.30;96599.41;5034788;28;20025;-59
2021/09/11 10:26:43;;;;;;;11.02;4.85;;;;;;;25.96;23.88;96595.53;5034719;28;20060;-59
2021/09/11 10:29:44;;;;;;;9.23;4.10;;;;;;;25.96;24.68;96592.84;5034598;28;20443;-58
2021/09/11 10:32:21;;;;;;;11.77;4.35;;;;;;;25.87;25.74;96593.78;5034369;28;20032;-58
2021/09/11 10:35:08;;;;;;;12.57;4.57;;;;;;;25.94;26.26;96589.47;5034635;28;20125;-59
2021/09/11 10:37:57;;;;;;;12.73;4.68;;;;;;;25.60;25.68;96591.03;5034517;28;20025;-59
2021/09/11 10:40:46;;;;;;;10.20;4.03;;;;;;;25.73;26.76;96581.75;5034465;28;20064;-58
2021/09/11 10:43:12;;;;;;;9.65;5.25;;;;;;;25.88;27.76;96582.06;5034412;28;20025;-59
2021/09/11 10:45:52;;;;;;;8.93;4.00;;;;;;;26.08;24.53;96582.75;5034325;28;20025;-58
2021/09/11 10:48:49;;;;;;;10.13;4.57;;;;;;;26.11;25.87;96584.25;5034369;28;20155;-59
2021/09/11 10:51:17;;;;;;;13.93;3.90;;;;;;;25.81;24.44;96583.66;5034283;28;20045;-59
2021/09/11 10:54:08;;;;;;;10.90;4.47;;;;;;;26.00;27.42;96588.00;5034256;28;20037;-59
2021/09/11 10:56:39;;;;;;;10.20;4.43;;;;;;;25.93;27.81;96578.91;5034298;28;20542;-58
2021/09/11 10:59:19;;;;;;;12.65;4.70;;;;;;;25.99;27.13;96578.31;5033911;28;20440;-59
2021/09/11 11:02:05;;;;;;;8.52;4.03;;;;;;;25.93;25.38;96576.25;5034126;28;20419;-59
2021/09/11 11:04:49;;;;;;;15.02;4.85;;;;;;;25.85;28.59;96571.66;5034017;28;20033;-58
2021/09/11 11:07:20;;;;;;;16.65;4.38;;;;;;;26.03;27.56;96566.28;5033997;28;20083;-59
2021/09/11 11:09:47;;;;;;;12.90;4.55;;;;;;;26.17;26.20;96550.63;5033974;28;20029;-59
2021/09/11 11:12:19;;;;;;;11.15;4.07;;;;;;;25.95;26.15;96553.66;5033764;28;20026;-58
2021/09/11 11:14:47;;;;;;;11.68;4.25;;;;;;;25.83;26.86;96552.22;5033750;28;20107;-59
2021/09/11 11:17:15;;;;;;;8.07;4.30;;;;;;;25.91;24.57;96546.91;5033767;28;20036;-59
2021/09/11 11:19:43;;;;;;;14.82;4.50;;;;;;;25.90;25.02;96555.97;5033645;28;20410;-58
2021/09/11 11:22:11;;;;;;;9.52;4.30;;;;;;;26.06;28.32;96557.06;5033748;28;20033;-59
2021/09/11 11:24:43;;;;;;;10.18;4.10;;;;;;;26.14;26.56;96548.25;5033655;28;20036;-59
2021/09/11 11:27:14;;;;;;;11.50;4.85;;;;;;;26.20;25.64;96542.28;5033747;28;20026;-59
2021/09/11 11:29:43;;;;;;;16.92;6.95;;;;;;;26.18;26.00;96539.75;5033645;28;20360;-59
2021/09/11 11:32:08;;;;;;;16.65;4.85;;;;;;;26.35;26.57;96540.75;5033586;28;20076;-59
2021/09/11 11:34:36;;;;;;;6.22;4.35;;;;;;;26.46;25.74;96530.75;5033326;28;20104;-58